sensor_id;sensor_type;location;lat;lon;timestamp;pressure;altitude;pressure_sealevel;temperature;humidity
53647;BME280;39550;52.230;5.194;2023-05-29T00:01:20;102364.22;;;17.28;60.08
53647;BME280;39550;52.230;5.194;2023-05-29T00:03:46;102353.75;;;17.22;58.90
53647;BME280;39550;52.230;5.194;2023-05-29T00:06:11;102366.63;;;16.93;56.86
53647;BME280;39550;52.230;5.194;2023-05-29T00:08:37;102364.81;;;16.84;59.44
53647;BME280;39550;52.230;5.194;2023-05-29T00:11:03;102357.00;;;16.85;58.08
53647;BME280;39550;52.230;5.194;2023-05-29T00:13:28;102361.41;;;16.90;57.97
53647;BME280;39550;52.230;5.194;2023-05-29T00:15:53;102366.63;;;16.96;58.38
53647;BME280;39550;52.230;5.194;2023-05-29T00:18:19;102363.19;;;16.98;58.44
53647;BME280;39550;52.230;5.194;2023-05-29T00:20:44;102357.97;;;16.98;58.18
53647;BME280;39550;52.230;5.194;2023-05-29T00:23:09;102354.50;;;16.96;58.41
53647;BME280;39550;52.230;5.194;2023-05-29T00:25:35;102351.84;;;16.90;58.79
53647;BME280;39550;52.230;5.194;2023-05-29T00:28:00;102364.91;;;16.95;59.06
53647;BME280;39550;52.230;5.194;2023-05-29T00:30:26;102362.28;;;16.93;59.03
53647;BME280;39550;52.230;5.194;2023-05-29T00:32:51;102357.06;;;16.93;58.88
53647;BME280;39550;52.230;5.194;2023-05-29T00:35:20;102371.84;;;16.93;58.56
53647;BME280;39550;52.230;5.194;2023-05-29T00:37:45;102367.47;;;16.93;58.80
53647;BME280;39550;52.230;5.194;2023-05-29T00:40:10;102370.97;;;16.92;59.20
53647;BME280;39550;52.230;5.194;2023-05-29T00:42:36;102377.88;;;16.90;58.49
53647;BME280;39550;52.230;5.194;2023-05-29T00:45:02;102377.88;;;16.90;59.26
53647;BME280;39550;52.230;5.194;2023-05-29T00:47:28;102378.69;;;16.88;59.09
53647;BME280;39550;52.230;5.194;2023-05-29T00:49:53;102377.84;;;16.87;59.69
53647;BME280;39550;52.230;5.194;2023-05-29T00:52:20;102380.44;;;16.85;59.07
53647;BME280;39550;52.230;5.194;2023-05-29T00:54:46;102383.03;;;16.81;59.20
53647;BME280;39550;52.230;5.194;2023-05-29T00:57:13;102385.66;;;16.84;58.79
53647;BME280;39550;52.230;5.194;2023-05-29T00:59:39;102378.69;;;16.83;59.80
53647;BME280;39550;52.230;5.194;2023-05-29T01:02:06;102383.03;;;16.81;59.67
53647;BME280;39550;52.230;5.194;2023-05-29T01:04:32;102388.19;;;16.79;59.67
53647;BME280;39550;52.230;5.194;2023-05-29T01:07:01;102387.31;;;16.76;59.13
53647;BME280;39550;52.230;5.194;2023-05-29T01:09:28;102390.78;;;16.75;59.80
53647;BME280;39550;52.230;5.194;2023-05-29T01:15:18;102393.34;;;16.68;59.29
53647;BME280;39550;52.230;5.194;2023-05-29T01:20:42;102394.19;;;16.66;58.96
53647;BME280;39550;52.230;5.194;2023-05-29T01:27:00;102407.19;;;16.64;58.95
53647;BME280;39550;52.230;5.194;2023-05-29T01:29:32;102409.81;;;16.64;59.41
53647;BME280;39550;52.230;5.194;2023-05-29T01:31:59;102418.47;;;16.63;59.60
53647;BME280;39550;52.230;5.194;2023-05-29T01:34:24;102409.75;;;16.60;59.57
53647;BME280;39550;52.230;5.194;2023-05-29T01:36:50;102415.84;;;16.59;59.33
53647;BME280;39550;52.230;5.194;2023-05-29T01:39:15;102417.56;;;16.61;59.55
53647;BME280;39550;52.230;5.194;2023-05-29T01:41:43;102424.50;;;16.59;59.51
53647;BME280;39550;52.230;5.194;2023-05-29T01:44:10;102421.00;;;16.57;59.31
53647;BME280;39550;52.230;5.194;2023-05-29T01:46:37;102420.13;;;16.55;59.46
53647;BME280;39550;52.230;5.194;2023-05-29T01:49:03;102431.41;;;16.54;60.16
53647;BME280;39550;52.230;5.194;2023-05-29T01:51:29;102433.97;;;16.49;59.74
53647;BME280;39550;52.230;5.194;2023-05-29T01:53:57;102436.56;;;16.51;59.55
53647;BME280;39550;52.230;5.194;2023-05-29T01:56:25;102438.28;;;16.49;60.13
53647;BME280;39550;52.230;5.194;2023-05-29T01:58:52;102440.00;;;16.47;59.56
53647;BME280;39550;52.230;5.194;2023-05-29T02:01:19;102445.22;;;16.47;59.19
53647;BME280;39550;52.230;5.194;2023-05-29T02:03:45;102443.47;;;16.46;59.30
53647;BME280;39550;52.230;5.194;2023-05-29T02:06:10;102440.84;;;16.44;59.03
53647;BME280;39550;52.230;5.194;2023-05-29T02:08:36;102440.84;;;16.43;59.77
53647;BME280;39550;52.230;5.194;2023-05-29T02:11:01;102443.44;;;16.43;59.88
53647;BME280;39550;52.230;5.194;2023-05-29T02:13:27;102439.97;;;16.41;59.37
53647;BME280;39550;52.230;5.194;2023-05-29T02:15:52;102426.91;;;16.36;59.88
53647;BME280;39550;52.230;5.194;2023-05-29T02:18:17;102433.84;;;16.37;60.04
53647;BME280;39550;52.230;5.194;2023-05-29T02:20:44;102434.69;;;16.34;59.71
53647;BME280;39550;52.230;5.194;2023-05-29T02:23:10;102439.03;;;16.32;59.91
53647;BME280;39550;52.230;5.194;2023-05-29T02:25:35;102432.91;;;16.30;60.05
53647;BME280;39550;52.230;5.194;2023-05-29T02:28:01;102427.69;;;16.27;59.61
53647;BME280;39550;52.230;5.194;2023-05-29T02:30:27;102429.44;;;16.28;58.77
53647;BME280;39550;52.230;5.194;2023-05-29T02:32:53;102425.94;;;16.26;58.66
53647;BME280;39550;52.230;5.194;2023-05-29T02:35:18;102430.28;;;16.24;59.03
53647;BME280;39550;52.230;5.194;2023-05-29T02:37:46;102434.59;;;16.25;59.68
53647;BME280;39550;52.230;5.194;2023-05-29T02:40:11;102433.72;;;16.25;59.62
53647;BME280;39550;52.230;5.194;2023-05-29T02:42:37;102431.09;;;16.20;58.92
53647;BME280;39550;52.230;5.194;2023-05-29T02:45:02;102432.78;;;16.15;59.45
53647;BME280;39550;52.230;5.194;2023-05-29T02:47:29;102438.91;;;16.20;59.28
53647;BME280;39550;52.230;5.194;2023-05-29T02:49:54;102431.09;;;16.20;59.58
53647;BME280;39550;52.230;5.194;2023-05-29T02:52:20;102429.34;;;16.17;59.02
53647;BME280;39550;52.230;5.194;2023-05-29T02:54:45;102424.97;;;16.13;59.36
53647;BME280;39550;52.230;5.194;2023-05-29T02:57:11;102437.97;;;16.15;59.46
53647;BME280;39550;52.230;5.194;2023-05-29T02:59:37;102441.44;;;16.14;59.25
53647;BME280;39550;52.230;5.194;2023-05-29T03:02:02;102446.63;;;16.14;59.63
53647;BME280;39550;52.230;5.194;2023-05-29T03:04:28;102445.75;;;16.12;59.02
53647;BME280;39550;52.230;5.194;2023-05-29T03:06:53;102440.50;;;16.09;59.15
53647;BME280;39550;52.230;5.194;2023-05-29T03:09:19;102444.81;;;16.07;58.97
53647;BME280;39550;52.230;5.194;2023-05-29T03:11:45;102441.31;;;16.05;59.37
53647;BME280;39550;52.230;5.194;2023-05-29T03:14:13;102440.44;;;16.03;59.14
53647;BME280;39550;52.230;5.194;2023-05-29T03:16:38;102441.28;;;16.02;59.53
53647;BME280;39550;52.230;5.194;2023-05-29T03:19:06;102440.41;;;15.99;60.15
53647;BME280;39550;52.230;5.194;2023-05-29T03:21:32;102422.19;;;15.96;59.62
53647;BME280;39550;52.230;5.194;2023-05-29T03:23:58;102427.38;;;15.96;59.46
53647;BME280;39550;52.230;5.194;2023-05-29T03:26:23;102436.03;;;15.95;59.30
53647;BME280;39550;52.230;5.194;2023-05-29T03:28:49;102439.47;;;15.94;59.55
53647;BME280;39550;52.230;5.194;2023-05-29T03:31:14;102439.47;;;15.93;60.11
53647;BME280;39550;52.230;5.194;2023-05-29T03:33:39;102442.94;;;15.93;58.88
53647;BME280;39550;52.230;5.194;2023-05-29T03:36:05;102441.22;;;15.92;59.56
53647;BME280;39550;52.230;5.194;2023-05-29T03:38:32;102436.84;;;15.91;58.52
53647;BME280;39550;52.230;5.194;2023-05-29T03:40:58;102435.97;;;15.91;59.16
53647;BME280;39550;52.230;5.194;2023-05-29T03:43:23;102437.72;;;15.90;59.57
53647;BME280;39550;52.230;5.194;2023-05-29T03:45:48;102437.69;;;15.89;58.80
53647;BME280;39550;52.230;5.194;2023-05-29T03:48:14;102441.13;;;15.86;58.14
53647;BME280;39550;52.230;5.194;2023-05-29T03:50:40;102432.47;;;15.86;59.44
53647;BME280;39550;52.230;5.194;2023-05-29T03:53:05;102436.78;;;15.85;58.60
53647;BME280;39550;52.230;5.194;2023-05-29T03:55:31;102435.06;;;15.84;58.64
53647;BME280;39550;52.230;5.194;2023-05-29T03:57:56;102439.34;;;15.82;58.69
53647;BME280;39550;52.230;5.194;2023-05-29T04:00:22;102438.50;;;15.83;58.96
53647;BME280;39550;52.230;5.194;2023-05-29T04:02:47;102441.06;;;15.80;59.15
53647;BME280;39550;52.230;5.194;2023-05-29T04:05:12;102444.47;;;15.79;59.20
53647;BME280;39550;52.230;5.194;2023-05-29T04:07:38;102441.88;;;15.77;59.56
53647;BME280;39550;52.230;5.194;2023-05-29T04:10:05;102448.75;;;15.75;59.27
53647;BME280;39550;52.230;5.194;2023-05-29T04:12:31;102453.09;;;15.75;59.34
53647;BME280;39550;52.230;5.194;2023-05-29T04:14:56;102449.59;;;15.73;59.66
53647;BME280;39550;52.230;5.194;2023-05-29T04:17:22;102457.38;;;15.73;59.01
53647;BME280;39550;52.230;5.194;2023-05-29T04:19:47;102455.66;;;15.70;59.68
53647;BME280;39550;52.230;5.194;2023-05-29T04:22:14;102449.53;;;15.66;58.76
53647;BME280;39550;52.230;5.194;2023-05-29T04:24:40;102461.72;;;15.71;58.54
53647;BME280;39550;52.230;5.194;2023-05-29T04:27:07;102468.59;;;15.69;58.75
53647;BME280;39550;52.230;5.194;2023-05-29T04:29:34;102467.72;;;15.68;59.72
53647;BME280;39550;52.230;5.194;2023-05-29T04:31:59;102471.19;;;15.69;58.92
53647;BME280;39550;52.230;5.194;2023-05-29T04:34:28;102473.75;;;15.65;58.73
53647;BME280;39550;52.230;5.194;2023-05-29T04:36:56;102480.72;;;15.66;58.64
53647;BME280;39550;52.230;5.194;2023-05-29T04:39:22;102473.75;;;15.65;58.68
53647;BME280;39550;52.230;5.194;2023-05-29T04:41:47;102485.91;;;15.66;58.35
53647;BME280;39550;52.230;5.194;2023-05-29T04:44:13;102484.16;;;15.65;58.78
53647;BME280;39550;52.230;5.194;2023-05-29T04:46:38;102492.78;;;15.64;58.91
53647;BME280;39550;52.230;5.194;2023-05-29T04:49:04;102496.28;;;15.63;58.85
53647;BME280;39550;52.230;5.194;2023-05-29T04:51:29;102489.31;;;15.62;59.05
53647;BME280;39550;52.230;5.194;2023-05-29T04:53:55;102484.94;;;15.58;58.79
53647;BME280;39550;52.230;5.194;2023-05-29T04:56:22;102480.59;;;15.57;59.17
53647;BME280;39550;52.230;5.194;2023-05-29T04:58:47;102491.91;;;15.62;59.45
53647;BME280;39550;52.230;5.194;2023-05-29T05:01:13;102491.97;;;15.69;59.14
53647;BME280;39550;52.230;5.194;2023-05-29T05:03:40;102496.38;;;15.73;58.16
53647;BME280;39550;52.230;5.194;2023-05-29T05:06:05;102491.16;;;15.73;58.88
53647;BME280;39550;52.230;5.194;2023-05-29T05:08:33;102498.13;;;15.74;58.59
53647;BME280;39550;52.230;5.194;2023-05-29T05:10:59;102501.53;;;15.70;58.59
53647;BME280;39550;52.230;5.194;2023-05-29T05:13:25;102499.75;;;15.65;58.58
53647;BME280;39550;52.230;5.194;2023-05-29T05:15:51;102503.19;;;15.63;58.47
53647;BME280;39550;52.230;5.194;2023-05-29T05:18:16;102498.84;;;15.60;58.91
53647;BME280;39550;52.230;5.194;2023-05-29T05:20:42;102500.53;;;15.60;58.43
53647;BME280;39550;52.230;5.194;2023-05-29T05:23:07;102497.09;;;15.59;59.07
53647;BME280;39550;52.230;5.194;2023-05-29T05:25:33;102500.50;;;15.55;58.76
53647;BME280;39550;52.230;5.194;2023-05-29T05:28:00;102503.94;;;15.56;58.36
53647;BME280;39550;52.230;5.194;2023-05-29T05:30:25;102492.69;;;15.55;58.33
53647;BME280;39550;52.230;5.194;2023-05-29T05:32:51;102503.09;;;15.55;58.69
53647;BME280;39550;52.230;5.194;2023-05-29T05:35:16;102497.91;;;15.55;58.32
53647;BME280;39550;52.230;5.194;2023-05-29T05:37:41;102498.72;;;15.54;59.16
53647;BME280;39550;52.230;5.194;2023-05-29T05:40:07;102502.19;;;15.53;58.06
53647;BME280;39550;52.230;5.194;2023-05-29T05:42:33;102504.78;;;15.53;58.67
53647;BME280;39550;52.230;5.194;2023-05-29T05:44:59;102503.06;;;15.52;58.09
53647;BME280;39550;52.230;5.194;2023-05-29T05:47:24;102501.31;;;15.51;58.09
53647;BME280;39550;52.230;5.194;2023-05-29T05:49:50;102505.59;;;15.50;58.58
53647;BME280;39550;52.230;5.194;2023-05-29T05:52:17;102506.47;;;15.48;58.25
53647;BME280;39550;52.230;5.194;2023-05-29T05:54:43;102518.56;;;15.49;58.80
53647;BME280;39550;52.230;5.194;2023-05-29T05:57:08;102515.09;;;15.47;58.62
53647;BME280;39550;52.230;5.194;2023-05-29T05:59:34;102509.91;;;15.47;58.71
53647;BME280;39550;52.230;5.194;2023-05-29T06:01:59;102505.56;;;15.47;57.76
53647;BME280;39550;52.230;5.194;2023-05-29T06:04:25;102513.34;;;15.46;58.77
53647;BME280;39550;52.230;5.194;2023-05-29T06:06:51;102511.59;;;15.45;58.56
53647;BME280;39550;52.230;5.194;2023-05-29T06:09:16;102515.09;;;15.47;57.97
53647;BME280;39550;52.230;5.194;2023-05-29T06:11:41;102518.53;;;15.46;57.61
53647;BME280;39550;52.230;5.194;2023-05-29T06:14:07;102513.34;;;15.46;58.25
53647;BME280;39550;52.230;5.194;2023-05-29T06:16:32;102520.28;;;15.47;59.34
53647;BME280;39550;52.230;5.194;2023-05-29T06:18:58;102514.19;;;15.46;58.67
53647;BME280;39550;52.230;5.194;2023-05-29T06:21:23;102507.19;;;15.41;58.12
53647;BME280;39550;52.230;5.194;2023-05-29T06:23:48;102517.69;;;15.45;58.36
53647;BME280;39550;52.230;5.194;2023-05-29T06:26:14;102524.59;;;15.46;57.92
53647;BME280;39550;52.230;5.194;2023-05-29T06:28:41;102518.50;;;15.43;57.99
53647;BME280;39550;52.230;5.194;2023-05-29T06:31:06;102523.69;;;15.43;57.93
53647;BME280;39550;52.230;5.194;2023-05-29T06:33:31;102516.75;;;15.42;58.29
53647;BME280;39550;52.230;5.194;2023-05-29T06:35:57;102525.38;;;15.41;58.10
53647;BME280;39550;52.230;5.194;2023-05-29T06:38:22;102519.34;;;15.42;57.99
53647;BME280;39550;52.230;5.194;2023-05-29T06:40:47;102518.41;;;15.37;58.18
53647;BME280;39550;52.230;5.194;2023-05-29T06:43:13;102532.34;;;15.42;58.30
53647;BME280;39550;52.230;5.194;2023-05-29T06:45:38;102519.31;;;15.40;57.81
53647;BME280;39550;52.230;5.194;2023-05-29T06:48:04;102521.94;;;15.42;58.00
53647;BME280;39550;52.230;5.194;2023-05-29T06:50:29;102530.56;;;15.41;58.37
53647;BME280;39550;52.230;5.194;2023-05-29T06:52:55;102526.28;;;15.43;57.86
53647;BME280;39550;52.230;5.194;2023-05-29T06:55:20;102515.78;;;15.37;58.27
53647;BME280;39550;52.230;5.194;2023-05-29T06:57:46;102528.94;;;15.46;58.20
53647;BME280;39550;52.230;5.194;2023-05-29T07:00:12;102529.78;;;15.46;58.75
53647;BME280;39550;52.230;5.194;2023-05-29T07:02:37;102545.44;;;15.48;58.24
53647;BME280;39550;52.230;5.194;2023-05-29T07:05:03;102541.06;;;15.47;58.33
53647;BME280;39550;52.230;5.194;2023-05-29T07:07:28;102540.25;;;15.49;58.13
53647;BME280;39550;52.230;5.194;2023-05-29T07:09:54;102541.13;;;15.50;58.26
53647;BME280;39550;52.230;5.194;2023-05-29T07:12:21;102535.06;;;15.49;58.20
53647;BME280;39550;52.230;5.194;2023-05-29T07:14:46;102534.16;;;15.49;58.23
53647;BME280;39550;52.230;5.194;2023-05-29T07:17:13;102528.97;;;15.49;58.08
53647;BME280;39550;52.230;5.194;2023-05-29T07:19:39;102541.13;;;15.50;58.07
53647;BME280;39550;52.230;5.194;2023-05-29T07:22:04;102540.25;;;15.49;58.08
53647;BME280;39550;52.230;5.194;2023-05-29T07:24:30;102546.31;;;15.50;57.85
53647;BME280;39550;52.230;5.194;2023-05-29T07:26:55;102549.81;;;15.52;58.20
53647;BME280;39550;52.230;5.194;2023-05-29T07:29:20;102544.56;;;15.50;58.73
53647;BME280;39550;52.230;5.194;2023-05-29T07:31:48;102548.06;;;15.51;57.44
53647;BME280;39550;52.230;5.194;2023-05-29T07:34:13;102552.41;;;15.52;58.01
53647;BME280;39550;52.230;5.194;2023-05-29T07:37:05;102550.69;;;15.54;58.16
53647;BME280;39550;52.230;5.194;2023-05-29T07:39:32;102552.44;;;15.54;58.05
53647;BME280;39550;52.230;5.194;2023-05-29T07:41:58;102549.84;;;15.55;58.20
53647;BME280;39550;52.230;5.194;2023-05-29T07:44:25;102552.47;;;15.57;57.83
53647;BME280;39550;52.230;5.194;2023-05-29T07:46:50;102551.63;;;15.56;58.28
53647;BME280;39550;52.230;5.194;2023-05-29T07:49:15;102542.91;;;15.54;58.16
53647;BME280;39550;52.230;5.194;2023-05-29T07:51:41;102542.94;;;15.57;58.32
53647;BME280;39550;52.230;5.194;2023-05-29T07:54:06;102551.66;;;15.59;57.90
53647;BME280;39550;52.230;5.194;2023-05-29T07:56:32;102541.22;;;15.56;58.36
53647;BME280;39550;52.230;5.194;2023-05-29T07:58:59;102549.06;;;15.59;58.60
53647;BME280;39550;52.230;5.194;2023-05-29T08:01:25;102543.00;;;15.60;58.66
53647;BME280;39550;52.230;5.194;2023-05-29T08:03:51;102544.72;;;15.61;57.86
53647;BME280;39550;52.230;5.194;2023-05-29T08:06:16;102542.16;;;15.63;58.00
53647;BME280;39550;52.230;5.194;2023-05-29T08:08:42;102543.88;;;15.62;58.38
53647;BME280;39550;52.230;5.194;2023-05-29T08:11:08;102554.31;;;15.65;58.15
53647;BME280;39550;52.230;5.194;2023-05-29T08:13:34;102555.25;;;15.68;58.14
53647;BME280;39550;52.230;5.194;2023-05-29T08:15:59;102553.47;;;15.66;57.79
53647;BME280;39550;52.230;5.194;2023-05-29T08:18:25;102562.13;;;15.65;58.09
53647;BME280;39550;52.230;5.194;2023-05-29T08:20:51;102557.75;;;15.64;57.67
53647;BME280;39550;52.230;5.194;2023-05-29T08:23:18;102554.31;;;15.65;58.16
53647;BME280;39550;52.230;5.194;2023-05-29T08:25:43;102557.84;;;15.68;57.71
53647;BME280;39550;52.230;5.194;2023-05-29T08:28:09;102559.56;;;15.69;58.12
53647;BME280;39550;52.230;5.194;2023-05-29T08:30:34;102559.63;;;15.72;57.06
53647;BME280;39550;52.230;5.194;2023-05-29T08:33:00;102561.31;;;15.70;57.10
53647;BME280;39550;52.230;5.194;2023-05-29T08:35:25;102555.16;;;15.64;57.77
53647;BME280;39550;52.230;5.194;2023-05-29T08:37:50;102562.06;;;15.61;57.28
53647;BME280;39550;52.230;5.194;2023-05-29T08:40:16;102555.25;;;15.68;56.48
53647;BME280;39550;52.230;5.194;2023-05-29T08:42:56;102562.22;;;15.70;57.27
53647;BME280;39550;52.230;5.194;2023-05-29T08:45:24;102563.09;;;15.74;56.55
53647;BME280;39550;52.230;5.194;2023-05-29T08:47:52;102544.88;;;15.71;57.30
53647;BME280;39550;52.230;5.194;2023-05-29T08:50:19;102556.22;;;15.77;56.34
53647;BME280;39550;52.230;5.194;2023-05-29T08:52:45;102544.00;;;15.70;55.90
53647;BME280;39550;52.230;5.194;2023-05-29T08:55:11;102559.81;;;15.82;56.48
53647;BME280;39550;52.230;5.194;2023-05-29T08:57:36;102558.94;;;15.85;56.52
53647;BME280;39550;52.230;5.194;2023-05-29T09:00:04;102569.41;;;15.88;55.79
53647;BME280;39550;52.230;5.194;2023-05-29T09:02:35;102558.13;;;15.89;55.40
53647;BME280;39550;52.230;5.194;2023-05-29T09:05:02;102559.06;;;15.91;56.13
53647;BME280;39550;52.230;5.194;2023-05-29T09:07:27;102557.31;;;15.93;56.00
53647;BME280;39550;52.230;5.194;2023-05-29T09:09:52;102560.00;;;15.98;55.12
53647;BME280;39550;52.230;5.194;2023-05-29T09:12:18;102561.63;;;15.90;55.59
53647;BME280;39550;52.230;5.194;2023-05-29T09:14:44;102558.94;;;15.85;54.08
53647;BME280;39550;52.230;5.194;2023-05-29T09:17:11;102571.91;;;15.80;54.69
53647;BME280;39550;52.230;5.194;2023-05-29T09:19:38;102569.31;;;15.82;54.69
53647;BME280;39550;52.230;5.194;2023-05-29T09:22:11;102574.41;;;15.76;54.40
53647;BME280;39550;52.230;5.194;2023-05-29T09:24:40;102563.09;;;15.74;54.09
53647;BME280;39550;52.230;5.194;2023-05-29T09:27:06;102572.63;;;15.72;54.46
53647;BME280;39550;52.230;5.194;2023-05-29T09:29:37;102562.16;;;15.69;53.59
53647;BME280;39550;52.230;5.194;2023-05-29T09:32:07;102562.22;;;15.72;54.31
53647;BME280;39550;52.230;5.194;2023-05-29T09:34:33;102570.88;;;15.71;54.28
53647;BME280;39550;52.230;5.194;2023-05-29T09:37:07;102564.00;;;15.76;54.22
53647;BME280;39550;52.230;5.194;2023-05-29T09:42:07;102560.66;;;15.81;53.47
53647;BME280;39550;52.230;5.194;2023-05-29T09:44:32;102562.47;;;15.87;53.04
53647;BME280;39550;52.230;5.194;2023-05-29T09:46:59;102568.53;;;15.89;53.57
53647;BME280;39550;52.230;5.194;2023-05-29T09:49:25;102565.13;;;15.93;53.24
53647;BME280;39550;52.230;5.194;2023-05-29T09:51:55;102561.66;;;15.93;53.55
53647;BME280;39550;52.230;5.194;2023-05-29T09:54:21;102562.53;;;15.93;53.65
53647;BME280;39550;52.230;5.194;2023-05-29T09:56:46;102559.03;;;15.90;53.34
53647;BME280;39550;52.230;5.194;2023-05-29T09:59:13;102557.41;;;15.96;53.26
53647;BME280;39550;52.230;5.194;2023-05-29T10:01:43;102536.47;;;15.89;52.73
53647;BME280;39550;52.230;5.194;2023-05-29T10:04:11;102547.81;;;15.92;52.48
53647;BME280;39550;52.230;5.194;2023-05-29T10:06:45;102551.38;;;16.00;52.48
53647;BME280;39550;52.230;5.194;2023-05-29T10:09:12;102561.00;;;16.08;52.64
53647;BME280;39550;52.230;5.194;2023-05-29T10:11:44;102552.28;;;16.06;52.49
53647;BME280;39550;52.230;5.194;2023-05-29T10:14:18;102550.53;;;16.05;53.24
53647;BME280;39550;52.230;5.194;2023-05-29T10:16:46;102552.22;;;15.99;52.53
53647;BME280;39550;52.230;5.194;2023-05-29T10:19:13;102545.13;;;15.89;53.33
53647;BME280;39550;52.230;5.194;2023-05-29T10:21:40;102544.41;;;15.98;52.72
53647;BME280;39550;52.230;5.194;2023-05-29T10:24:07;102541.88;;;16.06;52.65
53647;BME280;39550;52.230;5.194;2023-05-29T10:26:37;102536.84;;;16.18;52.58
53647;BME280;39550;52.230;5.194;2023-05-29T10:32:01;102538.56;;;16.17;52.70
53647;BME280;39550;52.230;5.194;2023-05-29T10:37:09;102509.88;;;16.10;52.56
53647;BME280;39550;52.230;5.194;2023-05-29T10:39:41;102528.22;;;16.24;52.07
53647;BME280;39550;52.230;5.194;2023-05-29T10:42:46;102526.47;;;16.21;51.91
53647;BME280;39550;52.230;5.194;2023-05-29T10:50:47;102536.13;;;16.31;52.43
53647;BME280;39550;52.230;5.194;2023-05-29T10:53:31;102528.34;;;16.34;52.24
53647;BME280;39550;52.230;5.194;2023-05-29T10:55:58;102528.31;;;16.31;53.13
53647;BME280;39550;52.230;5.194;2023-05-29T10:58:25;102514.47;;;16.32;52.55
53647;BME280;39550;52.230;5.194;2023-05-29T11:00:54;102537.91;;;16.37;52.74
53647;BME280;39550;52.230;5.194;2023-05-29T11:03:31;102533.56;;;16.36;52.61
53647;BME280;39550;52.230;5.194;2023-05-29T11:08:52;102535.44;;;16.48;51.96
53647;BME280;39550;52.230;5.194;2023-05-29T11:11:39;102544.94;;;16.46;51.92
53647;BME280;39550;52.230;5.194;2023-05-29T11:14:07;102530.16;;;16.40;52.46
53647;BME280;39550;52.230;5.194;2023-05-29T11:19:08;102532.00;;;16.52;52.59
53647;BME280;39550;52.230;5.194;2023-05-29T11:25:56;102534.66;;;16.58;53.09
53647;BME280;39550;52.230;5.194;2023-05-29T11:28:21;102523.31;;;16.53;52.84
53647;BME280;39550;52.230;5.194;2023-05-29T11:30:47;102519.91;;;16.57;52.23
53647;BME280;39550;52.230;5.194;2023-05-29T11:33:19;102521.63;;;16.55;52.67
53647;BME280;39550;52.230;5.194;2023-05-29T11:35:52;102529.44;;;16.57;52.95
53647;BME280;39550;52.230;5.194;2023-05-29T11:38:20;102525.22;;;16.69;52.19
53647;BME280;39550;52.230;5.194;2023-05-29T11:40:46;102513.97;;;16.71;52.47
53647;BME280;39550;52.230;5.194;2023-05-29T11:43:24;102535.00;;;16.89;51.68
53647;BME280;39550;52.230;5.194;2023-05-29T11:45:49;102525.38;;;16.85;50.63
53647;BME280;39550;52.230;5.194;2023-05-29T11:48:15;102527.09;;;16.84;51.07
53647;BME280;39550;52.230;5.194;2023-05-29T11:50:40;102532.41;;;16.92;51.28
53647;BME280;39550;52.230;5.194;2023-05-29T11:53:06;102540.25;;;16.97;52.42
53647;BME280;39550;52.230;5.194;2023-05-29T11:55:35;102535.97;;;17.04;51.43
53647;BME280;39550;52.230;5.194;2023-05-29T11:58:02;102541.13;;;16.97;51.66
53647;BME280;39550;52.230;5.194;2023-05-29T12:00:32;102548.97;;;17.00;52.05
53647;BME280;39550;52.230;5.194;2023-05-29T12:02:59;102541.00;;;16.85;50.66
53647;BME280;39550;52.230;5.194;2023-05-29T12:05:29;102535.63;;;16.66;51.02
53647;BME280;39550;52.230;5.194;2023-05-29T12:07:55;102533.28;;;16.94;50.31
53647;BME280;39550;52.230;5.194;2023-05-29T12:10:27;102537.78;;;17.14;51.08
53647;BME280;39550;52.230;5.194;2023-05-29T12:12:57;102541.28;;;17.16;50.38
53647;BME280;39550;52.230;5.194;2023-05-29T12:15:23;102539.56;;;17.18;50.81
53647;BME280;39550;52.230;5.194;2023-05-29T12:17:50;102536.19;;;17.31;50.21
53647;BME280;39550;52.230;5.194;2023-05-29T12:20:16;102530.16;;;17.39;50.18
53647;BME280;39550;52.230;5.194;2023-05-29T12:22:43;102531.00;;;17.38;50.79
53647;BME280;39550;52.230;5.194;2023-05-29T12:25:10;102536.19;;;17.33;50.82
53647;BME280;39550;52.230;5.194;2023-05-29T12:27:44;102531.78;;;17.23;51.06
53647;BME280;39550;52.230;5.194;2023-05-29T12:30:19;102534.50;;;17.40;49.53
53647;BME280;39550;52.230;5.194;2023-05-29T12:32:47;102521.47;;;17.38;50.47
53647;BME280;39550;52.230;5.194;2023-05-29T12:35:20;102523.22;;;17.42;50.64
53647;BME280;39550;52.230;5.194;2023-05-29T12:40:26;102518.97;;;17.58;50.66
53647;BME280;39550;52.230;5.194;2023-05-29T12:43:00;102520.78;;;17.72;50.04
53647;BME280;39550;52.230;5.194;2023-05-29T12:45:27;102503.38;;;17.70;49.77
53647;BME280;39550;52.230;5.194;2023-05-29T12:47:54;102517.31;;;17.76;49.95
53647;BME280;39550;52.230;5.194;2023-05-29T12:52:53;102520.84;;;17.90;49.65
53647;BME280;39550;52.230;5.194;2023-05-29T12:55:18;102513.97;;;17.98;49.86
53647;BME280;39550;52.230;5.194;2023-05-29T12:57:43;102513.97;;;17.98;49.54
53647;BME280;39550;52.230;5.194;2023-05-29T13:00:11;102518.31;;;18.04;49.42
53647;BME280;39550;52.230;5.194;2023-05-29T13:02:37;102511.41;;;18.08;48.93
53647;BME280;39550;52.230;5.194;2023-05-29T13:05:02;102515.75;;;18.07;48.56
53647;BME280;39550;52.230;5.194;2023-05-29T13:07:28;102515.84;;;18.33;48.85
53647;BME280;39550;52.230;5.194;2023-05-29T13:09:53;102518.44;;;18.35;49.20
53647;BME280;39550;52.230;5.194;2023-05-29T13:12:18;102525.41;;;18.39;48.81
53647;BME280;39550;52.230;5.194;2023-05-29T13:14:44;102523.63;;;18.30;48.10
53647;BME280;39550;52.230;5.194;2023-05-29T13:17:09;102526.28;;;18.43;49.05
53647;BME280;39550;52.230;5.194;2023-05-29T13:19:34;102533.25;;;18.59;48.57
53647;BME280;39550;52.230;5.194;2023-05-29T13:21:59;102536.75;;;18.67;48.65
53647;BME280;39550;52.230;5.194;2023-05-29T13:24:25;102520.22;;;18.53;48.49
53647;BME280;39550;52.230;5.194;2023-05-29T13:26:50;102525.41;;;18.37;48.70